Midway, Missouri
Current Conditions -  °F | °C
As of 4:54 PM on Wednesday 22 Oct 2014 (Local Time) from KCOU Reporting Station
Clear Clear  
Wind Chill: 65°   Ceiling: Unl
Heat Index: 65°   Visibility: 10mi
Dew Point: 43°   Wind: 12mph
Humidity: 45%   Direction: 130°SE
Pressure: 30.16"   Gusts: NA
Location:  39.0235°N, 92.2896°W
Report Text: KCOU 222154Z 13010KT 10SM CLR 18/06 A3016 RMK AO2 SLP213 T01830061
Loading
Personal Weather Stations






























Interactive Weather Map
Tropical Storm Tracking
New forecast layout! Learn more

10-Day Weather Forecast

Advertisements
Track Severe Weather on mobile